Latest Coastal Weather Observations for Centre Island

IDD60701

Issued at 4:51 pm CST Thursday 29 June 2017 (issued every 10 minutes, with the page automatically refreshed every 10 minutes)

About coastal observations | Map of coastal stations | Coastal observations for NT | Marine services | Other Formats
Station Details ID: 014703 Name: CENTRE ISLAND Lat: -15.74 Lon: 136.82 Height: 12.2 m
Data from the previous 72 hours. | See also: Recent months at Centre Island
Date/Time
CST
Temp
°C
Wind Pressure Rain since
9am
mm
Weather Cloud Vis
km
Sea
Height
m
Swell
Dir  Spd
kts
Gust
kts
hPa Trend Height
m
Period
s
Dir
29/04:30pm 25.6 ESE 6 7 1015.4 - 0.0 - - - - - - -
29/04:00pm 25.7 ESE 8 9 1015.3 - 0.0 - - - - - - -
29/03:30pm 26.6 ESE 8 10 1015.3 - 0.0 - - - - - - -
29/03:00pm 26.9 ESE 10 11 1015.1 - 0.0 - - - - - - -
29/02:30pm 27.7 E 11 14 1015.2 - 0.0 - - - - - - -
29/02:00pm 27.5 ESE 5 7 1015.5 - 0.0 - - - - - - -
29/01:30pm 28.0 E 6 7 1015.7 - 0.0 - - - - - - -
29/01:00pm 27.6 SE 6 7 1015.8 - 0.0 - - - - - - -
29/12:30pm 27.5 SSE 8 9 1016.0 - 0.0 - - - - - - -
29/12:00pm 27.3 SSE 9 10 1016.4 - 0.0 - - - - - - -
29/11:30am 27.1 SSE 9 11 1016.7 - 0.0 - - - - - - -
29/11:00am 25.7 SSE 11 14 1017.1 - 0.0 - - - - - - -
29/10:30am 25.0 SSE 13 16 1017.1 - 0.0 - - - - - - -
29/10:00am 24.9 SSE 14 16 1017.2 - 0.0 - - - - - - -
29/09:30am 24.0 SSE 17 19 1017.1 - 0.0 - - - - - - -
29/09:00am 23.3 SSE 19 22 1017.1 - 0.0 - - - - - - -
29/08:30am 22.9 SSE 21 25 1016.7 - 0.0 - - - - - - -
29/08:00am 22.8 SSE 21 24 1016.3 - 0.0 - - - - - - -
29/07:30am 22.5 S 18 21 1016.0 - 0.0 - - - - - - -
29/07:00am 22.3 SSE 16 21 1015.7 - 0.0 - - - - - - -
29/06:30am 21.6 S 13 16 1015.6 - 0.0 - - - - - - -
29/06:00am 21.2 S 13 17 1015.5 - 0.0 - - - - - - -
29/05:30am 22.2 SSE 8 9 1015.2 - 0.0 - - - - - - -
29/05:00am 22.3 SSE 7 8 1015.2 - 0.0 - - - - - - -
29/04:30am 22.4 SE 7 8 1015.0 - 0.0 - - - - - - -
29/04:00am 22.3 SE 7 8 1015.0 - 0.0 - - - - - - -
29/03:30am 22.6 SSE 7 8 1015.0 - 0.0 - - - - - - -
29/03:00am 23.0 ESE 6 7 1015.2 - 0.0 - - - - - - -
29/02:30am 22.9 ESE 6 7 1015.4 - 0.0 - - - - - - -
29/02:00am 23.0 ESE 8 9 1015.5 - 0.0 - - - - - - -
29/01:30am 23.2 ESE 9 10 1015.9 - 0.0 - - - - - - -
29/01:00am 23.2 ESE 10 11 1016.1 - 0.0 - - - - - - -
29/12:30am 23.4 SE 9 11 1016.2 - 0.0 - - - - - - -
29/12:00am 23.6 ESE 9 10 1016.1 - 0.0 - - - - - - -
 
Date/Time
CST
Temp
°C
Wind Pressure Rain since
9am
mm
Weather Cloud Vis
km
Sea
Height
m
Swell
Dir  Spd
kts
Gust
kts
hPa Trend Height
m
Period
s
Dir
28/11:30pm 23.8 E 7 9 1016.2 - 0.0 - - - - - - -
28/11:00pm 23.9 E 7 9 1016.3 - 0.0 - - - - - - -
28/10:30pm 24.0 ENE 7 8 1016.3 - 0.0 - - - - - - -
28/10:00pm 24.1 ENE 6 7 1016.4 - 0.0 - - - - - - -
28/09:30pm 24.1 ENE 6 7 1016.2 - 0.0 - - - - - - -
28/09:00pm 23.9 E 8 10 1015.9 - 0.0 - - - - - - -
28/08:30pm 23.8 E 9 10 1015.7 - 0.0 - - - - - - -
28/08:00pm 23.9 ENE 7 9 1015.6 - 0.0 - - - - - - -
28/07:30pm 24.2 E 7 8 1015.4 - 0.0 - - - - - - -
28/07:00pm 24.2 E 7 9 1015.1 - 0.0 - - - - - - -
28/06:30pm 24.1 E 7 8 1014.9 - 0.0 - - - - - - -
28/06:00pm 24.3 E 10 11 1014.5 - 0.0 - - - - - - -
28/05:30pm 24.9 E 10 12 1014.4 - 0.0 - - - - - - -
28/05:00pm 25.3 ESE 9 10 1014.1 - 0.0 - - - - - - -
28/04:30pm 25.9 ESE 11 13 1014.0 - 0.0 - - - - - - -
28/04:00pm 26.9 ESE 12 14 1013.7 - 0.0 - - - - - - -
28/03:30pm 26.7 ESE 11 14 1013.9 - 0.0 - - - - - - -
28/03:00pm 27.4 ESE 11 13 1014.0 - 0.0 - - - - - - -
28/02:30pm 26.9 SE 11 13 1014.1 - 0.0 - - - - - - -
28/02:00pm 27.3 SE 11 13 1014.3 - 0.0 - - - - - - -
28/01:30pm 27.4 SE 7 9 1014.4 - 0.0 - - - - - - -
28/01:00pm 27.0 SE 7 9 1014.7 - 0.0 - - - - - - -
28/12:30pm 25.6 SE 5 6 1015.0 - 0.0 - - - - - - -
28/12:00pm 24.9 SE 5 5 1015.5 - 0.0 - - - - - - -
28/11:30am 24.5 SE 5 6 1016.0 - 0.0 - - - - - - -
28/11:00am 24.4 SE 5 6 1016.5 - 0.0 - - - - - - -
28/10:30am 23.8 SSE 6 6 1016.7 - 0.0 - - - - - - -
28/10:00am 23.1 SSE 5 6 1016.6 - 0.0 - - - - - - -
28/09:30am 21.8 SSE 6 7 1016.5 - 0.0 - - - - - - -
28/09:00am 21.2 SSE 6 8 1016.4 - 0.2 - - - - - - -
28/08:30am 21.2 S 7 8 1016.0 - 0.2 - - - - - - -
28/08:00am 22.0 S 7 8 1015.6 - 0.2 - - - - - - -
28/07:30am 21.9 SSE 4 5 1015.4 - 0.2 - - - - - - -
28/07:00am 21.4 SE 4 5 1015.1 - 0.2 - - - - - - -
28/06:30am 21.4 ESE 5 6 1014.9 - 0.2 - - - - - - -
28/06:00am 21.6 SE 5 6 1014.5 - 0.2 - - - - - - -
28/05:30am 21.7 SE 6 7 1014.5 - 0.2 - - - - - - -
28/05:00am 21.9 SE 6 7 1014.4 - 0.2 - - - - - - -
28/04:30am 22.0 SSE 5 6 1014.3 - 0.0 - - - - - - -
28/04:00am 22.0 SSE 5 6 1014.3 - 0.0 - - - - - - -
28/03:30am 22.1 SSE 6 8 1014.2 - 0.0 - - - - - - -
28/03:00am 22.5 SE 7 7 1014.2 - 0.0 - - - - - - -
28/02:30am 22.4 SE 7 8 1014.3 - 0.0 - - - - - - -
28/02:00am 22.4 E 6 7 1014.3 - 0.0 - - - - - - -
28/01:30am 22.5 E 6 7 1014.4 - 0.0 - - - - - - -
28/01:00am 22.6 E 6 7 1014.7 - 0.0 - - - - - - -
28/12:30am 22.8 E 7 8 1014.7 - 0.0 - - - - - - -
28/12:00am 22.9 ENE 7 9 1014.5 - 0.0 - - - - - - -
 
Date/Time
CST
Temp
°C
Wind Pressure Rain since
9am
mm
Weather Cloud Vis
km
Sea
Height
m
Swell
Dir  Spd
kts
Gust
kts
hPa Trend Height
m
Period
s
Dir
27/11:30pm 23.1 ENE 8 10 1014.6 - 0.0 - - - - - - -
27/11:00pm 23.1 ENE 8 10 1014.7 - 0.0 - - - - - - -
27/10:30pm 23.2 ENE 9 11 1014.8 - 0.0 - - - - - - -
27/10:00pm 23.2 ENE 10 12 1015.0 - 0.0 - - - - - - -
27/09:30pm 23.1 E 9 11 1014.9 - 0.0 - - - - - - -
27/09:00pm 23.0 E 10 11 1014.9 - 0.0 - - - - - - -
27/08:30pm 23.1 E 9 11 1014.9 - 0.0 - - - - - - -
27/08:00pm 23.3 ESE 9 10 1014.8 - 0.0 - - - - - - -
27/07:30pm 23.5 ESE 7 8 1014.4 - 0.0 - - - - - - -
27/07:00pm 23.7 E 8 10 1014.1 - 0.0 - - - - - - -
27/06:30pm 23.9 E 8 9 1014.0 - 0.0 - - - - - - -
27/06:00pm 24.2 E 8 10 1013.8 - 0.0 - - - - - - -
27/05:30pm 24.9 ENE 8 9 1013.5 - 0.0 - - - - - - -
27/05:00pm 25.6 ENE 9 11 1013.3 - 0.0 - - - - - - -
27/04:30pm 25.9 E 9 11 1013.1 - 0.0 - - - - - - -
27/04:00pm 26.4 E 11 13 1013.1 - 0.0 - - - - - - -
27/03:30pm 26.8 E 12 14 1013.2 - 0.0 - - - - - - -
27/03:00pm 27.0 NE 7 9 1013.4 - 0.0 - - - - - - -
27/02:30pm 27.6 E 11 14 1013.6 - 0.0 - - - - - - -
27/02:00pm 27.3 ESE 11 14 1013.8 - 0.0 - - - - - - -
27/01:30pm 26.1 ESE 7 8 1014.2 - 0.0 - - - - - - -
27/01:00pm 24.9 SE 4 5 1014.4 - 0.0 - - - - - - -
27/12:30pm 24.4 SSE 3 5 1014.9 - 0.0 - - - - - - -
27/12:00pm 23.1 S 4 7 1015.3 - 0.0 - - - - - - -
27/11:30am 21.6 S 6 8 1015.6 - 0.0 - - - - - - -
27/11:00am 22.0 SSE 5 7 1016.0 - 0.0 - - - - - - -
27/10:30am 21.6 S 5 6 1016.1 - 0.0 - - - - - - -
27/10:00am 21.2 S 4 6 1016.0 - 0.0 - - - - - - -
27/09:30am 20.8 SSE 5 6 1016.3 - 0.0 - - - - - - -
27/09:00am 20.7 SSE 5 6 1016.2 - 0.0 - - - - - - -
27/08:30am 20.7 S 6 8 1016.1 - 0.0 - - - - - - -
27/08:00am 20.8 SSW 4 5 1015.8 - 0.0 - - - - - - -
27/07:30am 20.2 S 4 5 1015.5 - 0.0 - - - - - - -
27/07:00am 20.3 SSE 5 8 1015.2 - 0.0 - - - - - - -
27/06:30am 20.6 SE 6 8 1014.9 - 0.0 - - - - - - -
27/06:00am 20.8 SE 6 8 1014.8 - 0.0 - - - - - - -
27/05:30am 21.0 ESE 5 7 1014.7 - 0.0 - - - - - - -
27/05:00am 21.2 ENE 5 7 1014.5 - 0.0 - - - - - - -
27/04:30am 21.5 ESE 7 8 1014.5 - 0.0 - - - - - - -
27/04:00am 21.4 ESE 8 10 1014.5 - 0.0 - - - - - - -
27/03:30am 21.5 E 6 8 1014.6 - 0.0 - - - - - - -
27/03:00am 21.7 E 7 11 1014.7 - 0.0 - - - - - - -
27/02:30am 21.5 E 9 11 1014.9 - 0.0 - - - - - - -
27/02:00am 21.9 ESE 9 11 1015.2 - 0.0 - - - - - - -
27/01:30am 22.0 ESE 11 14 1015.2 - 0.0 - - - - - - -
27/01:00am 22.2 ESE 11 13 1015.2 - 0.0 - - - - - - -
27/12:30am 22.2 SE 8 9 1015.3 - 0.0 - - - - - - -
27/12:00am 22.5 ESE 9 10 1015.3 - 0.0 - - - - - - -
 
Date/Time
CST
Temp
°C
Wind Pressure Rain since
9am
mm
Weather Cloud Vis
km
Sea
Height
m
Swell
Dir  Spd
kts
Gust
kts
hPa Trend Height
m
Period
s
Dir
26/11:30pm 22.5 ESE 6 7 1015.4 - 0.0 - - - - - - -
26/11:00pm 22.0 E 4 5 1015.6 - 0.0 - - - - - - -
26/10:30pm 22.5 E 5 6 1015.5 - 0.0 - - - - - - -
26/10:00pm 22.8 E 7 9 1015.7 - 0.0 - - - - - - -
26/09:30pm 22.7 E 7 8 1015.4 - 0.0 - - - - - - -
26/09:00pm 22.8 ENE 7 8 1015.2 - 0.0 - - - - - - -
26/08:30pm 22.9 E 7 9 1015.0 - 0.0 - - - - - - -
26/08:00pm 22.8 E 7 8 1014.8 - 0.0 - - - - - - -
26/07:30pm 22.8 ENE 5 7 1014.6 - 0.0 - - - - - - -
26/07:00pm 23.3 NE 5 7 1014.3 - 0.0 - - - - - - -
26/06:30pm 23.6 NE 8 10 1013.9 - 0.0 - - - - - - -
26/06:00pm 23.9 ENE 7 9 1013.9 - 0.0 - - - - - - -
26/05:30pm 24.9 ENE 7 8 1013.9 - 0.0 - - - - - - -
26/05:00pm 25.4 E 8 10 1013.8 - 0.0 - - - - - - -

Other Formats:

Comma delimited format used in spreadsheet applications
http://www.bom.gov.au/fwo/IDD60701/IDD60701.94248.axf

JavaScript Object Notation format (JSON) in row-major order
http://www.bom.gov.au/fwo/IDD60701/IDD60701.94248.json